createdAt,value
2018-03-26T00:00:01.846Z,47.40
2018-03-26T00:02:33.886Z,47.80
2018-03-26T00:05:04.778Z,47.40
2018-03-26T00:07:36.470Z,47.40
2018-03-26T00:10:10.911Z,47.20
2018-03-26T00:12:42.722Z,47.10
2018-03-26T00:15:13.592Z,47.00
2018-03-26T00:17:52.777Z,46.70
2018-03-26T00:20:23.123Z,46.50
2018-03-26T00:22:53.949Z,46.70
2018-03-26T00:25:25.857Z,46.40
2018-03-26T00:28:23.647Z,46.40
2018-03-26T00:31:02.691Z,46.30
2018-03-26T00:33:35.552Z,46.30
2018-03-26T00:36:05.702Z,46.60
2018-03-26T00:38:50.420Z,46.90
2018-03-26T00:41:23.592Z,46.90
2018-03-26T00:43:54.195Z,47.30
2018-03-26T00:46:29.180Z,46.90
2018-03-26T00:49:01.997Z,46.90
2018-03-26T00:51:36.602Z,46.60
2018-03-26T00:54:09.008Z,46.80
2018-03-26T00:56:44.300Z,46.60
2018-03-26T00:59:17.308Z,46.60
2018-03-26T01:01:49.462Z,46.70
2018-03-26T01:04:20.247Z,47.70
2018-03-26T01:06:53.001Z,47.70
2018-03-26T01:09:25.862Z,47.70
2018-03-26T01:11:57.145Z,47.30
2018-03-26T01:14:31.143Z,47.50
2018-03-26T01:17:05.213Z,47.50
2018-03-26T01:19:36.476Z,47.70
2018-03-26T01:22:07.230Z,47.80
2018-03-26T01:24:39.740Z,47.40
2018-03-26T01:27:10.834Z,47.20
2018-03-26T01:29:42.934Z,47.50
2018-03-26T01:32:54.876Z,47.50
2018-03-26T01:35:31.429Z,48.30
2018-03-26T01:38:02.269Z,48.30
2018-03-26T01:40:34.408Z,48.10
2018-03-26T01:43:08.900Z,48.00
2018-03-26T01:45:40.518Z,47.90
2018-03-26T01:48:10.920Z,48.30
2018-03-26T01:50:41.175Z,48.10
2018-03-26T01:53:11.610Z,48.80
2018-03-26T01:55:47.824Z,49.50
2018-03-26T01:58:18.740Z,49.50
2018-03-26T02:00:50.528Z,49.40
2018-03-26T02:03:20.952Z,49.40
2018-03-26T02:05:53.309Z,49.70
2018-03-26T02:08:26.041Z,49.60
2018-03-26T02:10:58.908Z,49.80
2018-03-26T02:13:30.593Z,49.30
2018-03-26T02:16:02.287Z,49.50
2018-03-26T02:18:35.108Z,49.40
2018-03-26T02:21:26.632Z,49.90
2018-03-26T02:24:00.637Z,49.90
2018-03-26T02:26:32.189Z,49.60
2018-03-26T02:29:03.600Z,49.60
2018-03-26T02:31:36.866Z,49.00
2018-03-26T02:34:06.813Z,48.80
2018-03-26T02:36:37.933Z,48.40
2018-03-26T02:39:08.566Z,48.90
2018-03-26T02:41:39.788Z,48.90
2018-03-26T02:44:11.401Z,48.20
2018-03-26T02:46:42.060Z,48.20
2018-03-26T02:49:11.949Z,47.80
2018-03-26T02:51:44.592Z,48.30
2018-03-26T02:54:19.463Z,48.20
2018-03-26T02:56:50.800Z,48.10
2018-03-26T02:59:22.793Z,48.00
2018-03-26T03:01:58.449Z,48.60
2018-03-26T03:04:28.494Z,48.60
2018-03-26T03:07:03.025Z,49.00
2018-03-26T03:09:34.250Z,49.00
2018-03-26T03:12:06.438Z,49.70
2018-03-26T03:14:36.992Z,49.30
2018-03-26T03:17:09.601Z,49.20
2018-03-26T03:19:40.106Z,48.80
2018-03-26T03:22:14.560Z,48.40
2018-03-26T03:24:51.013Z,48.60
2018-03-26T03:27:21.856Z,49.20
2018-03-26T03:30:10.996Z,49.50
2018-03-26T03:32:43.240Z,49.10
2018-03-26T03:35:21.016Z,49.10
2018-03-26T03:37:51.912Z,49.00
2018-03-26T03:40:25.366Z,49.50
2018-03-26T03:42:56.347Z,49.60
2018-03-26T03:45:29.112Z,49.60
2018-03-26T03:48:00.043Z,49.40
2018-03-26T03:50:31.921Z,49.70
2018-03-26T03:53:04.655Z,49.80
2018-03-26T03:55:35.583Z,50.10
2018-03-26T03:58:08.423Z,50.50
2018-03-26T04:00:40.778Z,51.20
2018-03-26T04:03:12.778Z,51.00
2018-03-26T04:05:45.323Z,50.20
2018-03-26T04:08:17.610Z,50.10
2018-03-26T04:10:51.933Z,50.40
2018-03-26T04:13:22.690Z,50.90
2018-03-26T04:15:54.205Z,50.50
2018-03-26T04:18:25.609Z,50.40
2018-03-26T04:20:57.864Z,50.80
2018-03-26T04:23:29.688Z,51.70
2018-03-26T04:26:01.463Z,51.50
2018-03-26T04:28:33.423Z,50.60
2018-03-26T04:31:04.458Z,50.10
2018-03-26T04:33:38.766Z,51.30
2018-03-26T04:36:09.790Z,51.40
2018-03-26T04:38:44.213Z,50.80
2018-03-26T04:41:17.962Z,50.30
2018-03-26T04:43:50.045Z,50.50
2018-03-26T04:46:20.809Z,50.10
2018-03-26T04:49:00.200Z,50.10
2018-03-26T04:51:32.037Z,49.80
2018-03-26T04:54:05.541Z,49.80
2018-03-26T04:56:38.503Z,49.50
2018-03-26T04:59:09.668Z,50.10
2018-03-26T05:01:41.149Z,50.00
2018-03-26T05:04:12.994Z,49.70
2018-03-26T05:06:43.383Z,50.80
2018-03-26T05:09:15.700Z,51.60
2018-03-26T05:11:49.155Z,53.00
2018-03-26T05:14:21.661Z,53.00
2018-03-26T05:17:00.760Z,52.80
2018-03-26T05:19:36.891Z,52.20
2018-03-26T05:22:07.418Z,52.70
2018-03-26T05:24:42.247Z,52.20
2018-03-26T05:27:12.881Z,52.20
2018-03-26T05:29:45.935Z,51.30
2018-03-26T05:32:16.762Z,52.50
2018-03-26T05:34:47.206Z,53.80
2018-03-26T05:37:19.242Z,53.40
2018-03-26T05:39:50.717Z,52.80
2018-03-26T05:42:21.792Z,52.30
2018-03-26T05:44:53.890Z,52.40
2018-03-26T05:47:26.411Z,52.10
2018-03-26T05:49:59.717Z,51.50
2018-03-26T05:52:31.499Z,51.20
2018-03-26T05:55:04.003Z,50.50
2018-03-26T05:57:37.768Z,50.50
2018-03-26T06:00:09.778Z,51.70
2018-03-26T06:02:43.108Z,51.20
2018-03-26T06:05:23.930Z,51.20
2018-03-26T06:07:57.914Z,51.70
2018-03-26T06:10:33.371Z,51.70
2018-03-26T06:13:15.185Z,51.60
2018-03-26T06:16:05.074Z,50.50
2018-03-26T06:18:42.461Z,50.40
2018-03-26T06:21:13.913Z,50.50
2018-03-26T06:23:45.851Z,50.00
2018-03-26T06:26:17.366Z,50.30
2018-03-26T06:28:51.006Z,50.70
2018-03-26T06:31:25.541Z,50.50
2018-03-26T06:33:57.726Z,50.10
2018-03-26T06:36:35.394Z,49.70
2018-03-26T06:39:09.183Z,49.50
2018-03-26T06:41:39.765Z,49.60
2018-03-26T06:44:13.127Z,51.20
2018-03-26T06:46:44.450Z,51.10
2018-03-26T06:49:16.598Z,50.40
2018-03-26T06:51:51.237Z,50.10
2018-03-26T06:54:21.539Z,50.10
2018-03-26T06:56:52.359Z,50.40
2018-03-26T06:59:25.930Z,49.60
2018-03-26T07:01:55.776Z,49.60
2018-03-26T07:04:29.075Z,50.30
2018-03-26T07:07:00.537Z,50.30
2018-03-26T07:09:35.116Z,50.50
2018-03-26T07:12:07.398Z,50.90
2018-03-26T07:14:37.465Z,50.70
2018-03-26T07:17:09.685Z,50.50
2018-03-26T07:19:40.887Z,50.40
2018-03-26T07:22:15.883Z,50.20
2018-03-26T07:24:46.721Z,50.20
2018-03-26T07:27:18.415Z,49.40
2018-03-26T07:29:51.301Z,49.40
2018-03-26T07:32:23.962Z,48.80
2018-03-26T07:34:55.611Z,48.80
2018-03-26T07:37:28.944Z,48.20
2018-03-26T07:40:01.152Z,47.90
2018-03-26T07:42:35.068Z,46.80
2018-03-26T07:45:05.599Z,46.80
2018-03-26T07:47:44.334Z,47.30
2018-03-26T07:50:19.155Z,47.20
2018-03-26T07:52:49.786Z,47.40
2018-03-26T07:55:25.790Z,46.90
2018-03-26T07:58:01.957Z,46.30
2018-03-26T08:00:37.269Z,46.90
2018-03-26T08:03:09.151Z,46.90
2018-03-26T08:05:39.687Z,46.40
2018-03-26T08:08:11.254Z,48.40
2018-03-26T08:10:44.744Z,48.40
2018-03-26T08:13:16.870Z,47.60
2018-03-26T08:15:47.314Z,46.90
2018-03-26T08:18:19.561Z,47.60
2018-03-26T08:20:50.298Z,47.60
2018-03-26T08:23:21.672Z,48.30
2018-03-26T08:25:55.921Z,48.40
2018-03-26T08:28:28.973Z,48.30
2018-03-26T08:31:04.149Z,46.90
2018-03-26T08:33:35.656Z,47.80
2018-03-26T08:36:11.166Z,47.80
2018-03-26T08:38:42.495Z,47.80
2018-03-26T08:41:13.526Z,47.20
2018-03-26T08:43:44.011Z,47.50
2018-03-26T08:46:14.084Z,47.10
2018-03-26T08:48:44.378Z,46.40
2018-03-26T08:51:15.870Z,46.90
2018-03-26T08:53:55.818Z,47.30
2018-03-26T08:56:29.047Z,46.80
2018-03-26T08:59:02.538Z,46.70
2018-03-26T09:01:35.620Z,46.10
2018-03-26T09:04:06.553Z,46.70
2018-03-26T09:06:37.073Z,45.10
2018-03-26T09:09:07.814Z,44.60
2018-03-26T09:11:38.239Z,44.10
2018-03-26T09:14:09.817Z,43.90
2018-03-26T09:16:41.429Z,43.80
2018-03-26T09:19:13.391Z,44.20
2018-03-26T09:21:45.486Z,43.40
2018-03-26T09:24:16.247Z,42.30
2018-03-26T09:26:47.998Z,42.10
2018-03-26T09:29:19.714Z,43.00
2018-03-26T09:31:51.558Z,43.70
2018-03-26T09:34:26.341Z,43.60
2018-03-26T09:37:00.817Z,45.20
2018-03-26T09:39:32.833Z,45.20
2018-03-26T09:42:04.544Z,45.90
2018-03-26T09:44:35.669Z,45.70
2018-03-26T09:47:08.633Z,44.60
2018-03-26T09:49:43.363Z,44.20
2018-03-26T09:52:17.888Z,43.30
2018-03-26T09:54:51.851Z,43.30
2018-03-26T09:57:23.985Z,43.80
2018-03-26T09:59:58.768Z,43.80
2018-03-26T10:02:30.116Z,43.00
2018-03-26T10:05:02.421Z,43.00
2018-03-26T10:07:35.688Z,43.30
2018-03-26T10:10:05.931Z,43.30
2018-03-26T10:12:36.939Z,43.40
2018-03-26T10:15:08.877Z,43.00
2018-03-26T10:17:41.875Z,43.60
2018-03-26T10:20:12.120Z,43.10
2018-03-26T10:22:42.656Z,41.60
2018-03-26T10:25:16.439Z,40.80
2018-03-26T10:27:48.297Z,40.80
2018-03-26T10:30:19.470Z,42.90
2018-03-26T10:32:51.684Z,43.00
2018-03-26T10:35:22.891Z,41.40
2018-03-26T10:37:55.258Z,43.90
2018-03-26T10:40:26.310Z,43.90
2018-03-26T10:43:02.515Z,44.10
2018-03-26T10:45:33.774Z,41.90
2018-03-26T10:48:10.320Z,41.20
2018-03-26T10:50:44.351Z,41.40
2018-03-26T10:53:16.162Z,42.10
2018-03-26T10:55:47.511Z,42.70
2018-03-26T10:58:18.056Z,42.30
2018-03-26T11:00:51.651Z,41.20
2018-03-26T11:03:23.357Z,41.90
2018-03-26T11:05:53.737Z,41.80
2018-03-26T11:08:24.672Z,42.20
2018-03-26T11:10:56.203Z,42.20
2018-03-26T11:13:27.198Z,42.10
2018-03-26T11:15:59.845Z,42.10
2018-03-26T11:18:30.498Z,41.30
2018-03-26T11:21:01.377Z,40.20
2018-03-26T11:23:33.006Z,38.90
2018-03-26T11:29:13.903Z,40.00
2018-03-26T11:31:46.162Z,40.40
2018-03-26T11:34:16.980Z,41.50
2018-03-26T11:36:49.439Z,42.80
2018-03-26T11:39:22.095Z,42.80
2018-03-26T11:41:53.451Z,43.00
2018-03-26T11:44:26.112Z,42.30
2018-03-26T11:46:59.622Z,40.70
2018-03-26T11:49:29.943Z,39.90
2018-03-26T11:52:03.792Z,38.30
2018-03-26T11:54:36.545Z,40.30
2018-03-26T11:57:07.921Z,40.20
2018-03-26T12:02:47.506Z,40.00
2018-03-26T12:08:55.693Z,38.80
2018-03-26T12:11:28.191Z,40.00
2018-03-26T12:13:58.937Z,39.90
2018-03-26T12:16:29.710Z,39.70
2018-03-26T12:19:01.674Z,40.00
2018-03-26T12:21:34.030Z,40.00
2018-03-26T12:24:22.635Z,39.00
2018-03-26T12:26:54.082Z,40.10
2018-03-26T12:29:42.927Z,39.80
2018-03-26T12:32:13.985Z,38.60
2018-03-26T12:35:08.856Z,38.70
2018-03-26T12:37:39.480Z,38.70
2018-03-26T12:40:28.966Z,38.70
2018-03-26T12:43:00.360Z,38.60
2018-03-26T12:45:49.683Z,37.90
2018-03-26T12:48:19.972Z,37.90
2018-03-26T12:51:09.378Z,37.90
2018-03-26T12:53:47.368Z,38.00
2018-03-26T12:56:20.556Z,39.90
2018-03-26T12:58:53.515Z,39.00
2018-03-26T13:01:42.479Z,38.60
2018-03-26T13:04:15.907Z,38.80
2018-03-26T13:06:48.975Z,38.00
2018-03-26T13:09:20.162Z,38.40
2018-03-26T13:11:50.993Z,39.70
2018-03-26T13:14:23.209Z,38.60
2018-03-26T13:16:54.941Z,38.40
2018-03-26T13:19:27.947Z,38.90
2018-03-26T13:21:59.639Z,38.90
2018-03-26T13:24:31.147Z,38.70
2018-03-26T13:27:03.548Z,38.80
2018-03-26T13:29:35.354Z,38.70
2018-03-26T13:32:12.100Z,38.70
2018-03-26T13:34:44.421Z,39.40
2018-03-26T13:37:15.670Z,39.30
2018-03-26T13:39:49.969Z,39.20
2018-03-26T13:42:26.101Z,38.30
2018-03-26T13:44:56.700Z,38.40
2018-03-26T13:47:30.359Z,37.70
2018-03-26T13:50:02.370Z,37.40
2018-03-26T13:52:34.516Z,37.40
2018-03-26T13:55:05.452Z,37.50
2018-03-26T13:57:36.594Z,37.10
2018-03-26T14:00:08.518Z,37.40
2018-03-26T14:02:40.561Z,38.30
2018-03-26T14:05:13.170Z,37.70
2018-03-26T14:07:44.352Z,37.50
2018-03-26T14:14:08.523Z,38.50
2018-03-26T14:16:58.590Z,38.60
2018-03-26T14:19:32.299Z,37.90
2018-03-26T14:22:03.974Z,37.90
2018-03-26T14:24:35.413Z,36.60
2018-03-26T14:27:06.703Z,36.50
2018-03-26T14:29:38.241Z,37.20
2018-03-26T14:32:09.627Z,38.30
2018-03-26T14:34:44.055Z,38.30
2018-03-26T14:37:18.872Z,37.70
2018-03-26T14:39:53.078Z,37.40
2018-03-26T14:42:26.022Z,37.70
2018-03-26T14:44:56.711Z,38.20
2018-03-26T14:47:27.999Z,37.40
2018-03-26T14:50:02.366Z,37.50
2018-03-26T14:52:34.686Z,37.90
2018-03-26T14:55:07.759Z,37.90
2018-03-26T14:57:42.167Z,38.00
2018-03-26T15:00:15.076Z,37.90
2018-03-26T15:02:45.377Z,38.30
2018-03-26T15:05:16.952Z,38.60
2018-03-26T15:07:51.177Z,39.00
2018-03-26T15:10:24.438Z,39.00
2018-03-26T15:12:57.981Z,39.50
2018-03-26T15:15:30.579Z,41.50
2018-03-26T15:18:05.148Z,41.10
2018-03-26T15:20:37.194Z,41.30
2018-03-26T15:23:08.657Z,41.80
2018-03-26T15:29:00.428Z,41.10
2018-03-26T15:31:31.842Z,41.30
2018-03-26T15:34:02.586Z,41.30
2018-03-26T15:36:35.793Z,41.70
2018-03-26T15:39:07.416Z,41.30
2018-03-26T15:41:40.400Z,41.90
2018-03-26T15:44:14.353Z,42.20
2018-03-26T15:46:46.269Z,42.40
2018-03-26T15:49:16.805Z,42.40
2018-03-26T15:51:49.387Z,43.50
2018-03-26T15:54:19.611Z,44.30
2018-03-26T15:56:51.210Z,44.10
2018-03-26T15:59:22.924Z,44.40
2018-03-26T16:01:53.853Z,44.10
2018-03-26T16:04:25.798Z,44.70
2018-03-26T16:06:57.175Z,44.70
2018-03-26T16:09:29.747Z,44.90
2018-03-26T16:12:05.060Z,44.40
2018-03-26T16:14:35.924Z,44.10
2018-03-26T16:17:10.606Z,44.00
2018-03-26T16:19:44.414Z,44.50
2018-03-26T16:22:16.315Z,44.50
2018-03-26T16:24:47.246Z,44.30
2018-03-26T16:27:18.929Z,44.70
2018-03-26T16:29:51.929Z,44.30
2018-03-26T16:32:23.516Z,44.80
2018-03-26T16:34:54.490Z,44.80
2018-03-26T16:37:25.262Z,45.20
2018-03-26T16:39:56.493Z,44.30
2018-03-26T16:42:31.538Z,45.80
2018-03-26T16:45:03.240Z,45.70
2018-03-26T16:47:37.516Z,45.60
2018-03-26T16:50:08.071Z,46.40
2018-03-26T16:52:41.836Z,46.50
2018-03-26T16:55:15.003Z,46.10
2018-03-26T16:57:45.982Z,45.90
2018-03-26T17:00:16.365Z,45.90
2018-03-26T17:02:51.942Z,45.70
2018-03-26T17:05:23.416Z,45.80
2018-03-26T17:07:55.112Z,45.80
2018-03-26T17:10:25.798Z,45.50
2018-03-26T17:12:56.631Z,45.30
2018-03-26T17:15:27.970Z,45.30
2018-03-26T17:17:59.814Z,44.50
2018-03-26T17:20:30.147Z,44.50
2018-03-26T17:23:01.367Z,44.60
2018-03-26T17:25:35.307Z,45.00
2018-03-26T17:28:13.361Z,44.70
2018-03-26T17:30:45.018Z,44.90
2018-03-26T17:33:18.001Z,45.10
2018-03-26T17:35:50.469Z,45.10
2018-03-26T17:38:21.947Z,45.10
2018-03-26T17:40:57.111Z,45.20
2018-03-26T17:43:33.112Z,45.10
2018-03-26T17:46:06.215Z,44.60
2018-03-26T17:48:41.518Z,44.50
2018-03-26T17:51:14.182Z,45.80
2018-03-26T17:53:48.414Z,45.80
2018-03-26T17:56:20.914Z,45.30
2018-03-26T17:58:58.366Z,44.70
2018-03-26T18:01:31.742Z,44.80
2018-03-26T18:04:02.105Z,45.90
2018-03-26T18:06:32.675Z,46.00
2018-03-26T18:09:09.072Z,45.70
2018-03-26T18:11:42.629Z,45.30
2018-03-26T18:14:12.866Z,44.80
2018-03-26T18:16:43.816Z,45.30
2018-03-26T18:19:14.318Z,45.30
2018-03-26T18:21:45.359Z,45.10
2018-03-26T18:24:17.949Z,44.90
2018-03-26T18:26:48.853Z,45.00
2018-03-26T18:29:22.601Z,44.90
2018-03-26T18:31:53.982Z,44.90
2018-03-26T18:34:26.776Z,45.20
2018-03-26T18:36:56.591Z,44.50
2018-03-26T18:39:29.018Z,44.60
2018-03-26T18:42:01.362Z,44.60
2018-03-26T18:44:35.096Z,44.70
2018-03-26T18:47:05.548Z,44.60
2018-03-26T18:49:40.488Z,45.30
2018-03-26T18:52:11.918Z,45.00
2018-03-26T18:54:42.048Z,44.80
2018-03-26T18:57:16.831Z,44.90
2018-03-26T18:59:49.277Z,45.30
2018-03-26T19:02:38.779Z,45.20
2018-03-26T19:05:22.748Z,45.20
2018-03-26T19:07:58.195Z,45.80
2018-03-26T19:10:30.762Z,45.70
2018-03-26T19:13:02.263Z,45.90
2018-03-26T19:15:34.931Z,45.90
2018-03-26T19:18:05.541Z,46.30
2018-03-26T19:20:40.490Z,46.80
2018-03-26T19:23:13.845Z,46.60
2018-03-26T19:25:44.878Z,46.50
2018-03-26T19:28:15.939Z,46.30
2018-03-26T19:30:50.684Z,45.50
2018-03-26T19:33:21.669Z,45.50
2018-03-26T19:35:52.285Z,45.50
2018-03-26T19:38:23.550Z,46.50
2018-03-26T19:40:56.049Z,46.40
2018-03-26T19:43:28.162Z,46.90
2018-03-26T19:46:00.256Z,46.30
2018-03-26T19:48:31.558Z,46.30
2018-03-26T19:51:02.015Z,46.60
2018-03-26T19:53:36.635Z,46.60
2018-03-26T19:56:38.803Z,46.60
2018-03-26T19:59:12.514Z,46.90
2018-03-26T20:01:43.934Z,47.50
2018-03-26T20:04:15.359Z,47.80
2018-03-26T20:06:47.511Z,47.50
2018-03-26T20:09:18.494Z,47.40
2018-03-26T20:11:53.580Z,47.30
2018-03-26T20:14:26.150Z,47.20
2018-03-26T20:16:57.434Z,47.40
2018-03-26T20:19:28.855Z,48.60
2018-03-26T20:22:01.269Z,48.90
2018-03-26T20:24:34.483Z,50.40
2018-03-26T20:27:07.763Z,50.40
2018-03-26T20:29:39.809Z,50.40
2018-03-26T20:32:10.755Z,51.20
2018-03-26T20:34:42.882Z,51.10
2018-03-26T20:37:14.657Z,51.10
2018-03-26T20:39:47.235Z,50.90
2018-03-26T20:42:19.423Z,50.20
2018-03-26T20:44:51.014Z,50.00
2018-03-26T20:47:28.948Z,50.20
2018-03-26T20:50:00.062Z,50.00
2018-03-26T20:52:33.057Z,50.20
2018-03-26T20:55:06.217Z,50.20
2018-03-26T20:57:37.672Z,50.20
2018-03-26T21:00:08.998Z,51.00
2018-03-26T21:02:45.532Z,51.30
2018-03-26T21:05:23.537Z,51.70
2018-03-26T21:07:55.099Z,51.70
2018-03-26T21:10:25.689Z,50.90
2018-03-26T21:12:57.330Z,51.20
2018-03-26T21:15:29.216Z,51.10
2018-03-26T21:18:00.581Z,50.50
2018-03-26T21:20:31.240Z,50.20
2018-03-26T21:23:04.052Z,49.80
2018-03-26T21:25:35.524Z,50.40
2018-03-26T21:28:07.591Z,50.30
2018-03-26T21:30:39.384Z,50.30
2018-03-26T21:33:11.886Z,50.00
2018-03-26T21:35:43.625Z,50.10
2018-03-26T21:38:14.436Z,51.60
2018-03-26T21:40:45.558Z,52.60
2018-03-26T21:43:16.908Z,52.10
2018-03-26T21:45:51.111Z,51.70
2018-03-26T21:48:22.914Z,51.70
2018-03-26T21:50:54.383Z,52.20
2018-03-26T21:56:13.003Z,51.70
2018-03-26T21:58:45.573Z,52.50
2018-03-26T22:01:18.721Z,51.90
2018-03-26T22:03:58.667Z,51.70
2018-03-26T22:06:30.088Z,52.10
2018-03-26T22:09:02.601Z,52.20
2018-03-26T22:11:33.933Z,52.50
2018-03-26T22:14:06.966Z,52.90
2018-03-26T22:16:40.662Z,53.50
2018-03-26T22:19:11.415Z,53.50
2018-03-26T22:21:43.900Z,53.10
2018-03-26T22:24:17.584Z,53.00
2018-03-26T22:26:49.696Z,52.50
2018-03-26T22:29:21.908Z,52.70
2018-03-26T22:31:52.473Z,54.30
2018-03-26T22:34:25.865Z,54.30
2018-03-26T22:36:56.774Z,54.20
2018-03-26T22:39:27.984Z,53.00
2018-03-26T22:42:00.112Z,52.10
2018-03-26T22:44:31.473Z,52.40
2018-03-26T22:47:04.811Z,53.00
2018-03-26T22:49:37.643Z,54.00
2018-03-26T22:52:07.946Z,53.40
2018-03-26T22:54:41.144Z,52.50
2018-03-26T22:57:13.113Z,51.90
2018-03-26T22:59:49.642Z,51.90
2018-03-26T23:02:23.022Z,54.70
2018-03-26T23:04:56.348Z,54.70
2018-03-26T23:07:27.122Z,55.00
2018-03-26T23:09:58.863Z,56.60
2018-03-26T23:12:31.855Z,57.00
2018-03-26T23:15:04.588Z,57.00
2018-03-26T23:17:35.836Z,55.30
2018-03-26T23:20:08.345Z,56.30
2018-03-26T23:22:50.867Z,56.30
2018-03-26T23:25:22.705Z,56.70
2018-03-26T23:27:54.137Z,56.70
2018-03-26T23:30:25.777Z,57.00
2018-03-26T23:32:58.145Z,57.00
2018-03-26T23:35:30.283Z,57.40
2018-03-26T23:38:08.863Z,57.20
2018-03-26T23:40:39.389Z,56.20
2018-03-26T23:43:11.567Z,55.90
2018-03-26T23:48:44.889Z,55.00
2018-03-26T23:51:14.200Z,54.40
2018-03-26T23:53:43.562Z,54.90
2018-03-26T23:56:14.796Z,55.90
2018-03-26T23:58:45.553Z,55.10
